A80 TRACON Summary / KATL TAF
ATL TRACON Summary:
A high pressure wedge will continue will keep the TRACON airspace in LIFR/IFR conditions through tonight. Surface winds will be east at 5-8kts. Flight Hazards in the TRACON airspace: LGT-MOD rime icing above 100 is possible.

Updated: 12/22/2014 12:21 PM
ATL Terminal Aerodrome Forecast:

FTUS31 KATL 222145 AAA
KATL 222143Z 2222/2324 09009KT 3SM -RA BR OVC004
     FM230300 09010KT 2SM -DZ BR OVC003
     FM230800 10008KT 1/2SM -DZ FG OVC002
     FM231500 11007KT 2SM -SHRA BR OVC008
     FM231900 13006KT 6SM -SHRA BR OVC012
ATL TRACON Area Remark:
LIFR EXPECTED ALL QUADS THRU 21z.
Convective Gate Forecast / Icing Gate Forecast / Vertical Wind Profile (click on image to enlarge)
Convective Gate Forecast
Icing Gate Forecast
table with gate forecasts (convective and CCFP) used April - November while icing gate forecasts are issued
AIRMETs & SIGMETS/ Southeast Radar loop / Satellite Image (click on image to enlarge)

Southeast Radar Loop

 



USA.gov is the U.S. government's official web portal to all federal, state and local government web resources and services.